sensor_id;sensor_type;location;lat;lon;timestamp;P1;durP1;ratioP1;P2;durP2;ratioP2
67841;SDS011;54642;59.126;37.876;2023-03-11T00:00:44;6.75;;;6.07;;
67841;SDS011;54642;59.126;37.876;2023-03-11T00:03:12;6.10;;;5.20;;
67841;SDS011;54642;59.126;37.876;2023-03-11T00:05:40;5.35;;;4.90;;
67841;SDS011;54642;59.126;37.876;2023-03-11T00:08:08;6.18;;;5.50;;
67841;SDS011;54642;59.126;37.876;2023-03-11T00:10:38;7.38;;;4.45;;
67841;SDS011;54642;59.126;37.876;2023-03-11T00:13:06;5.03;;;4.25;;
67841;SDS011;54642;59.126;37.876;2023-03-11T00:15:34;4.97;;;4.57;;
67841;SDS011;54642;59.126;37.876;2023-03-11T00:18:01;5.07;;;2.30;;
67841;SDS011;54642;59.126;37.876;2023-03-11T00:23:04;5.25;;;4.85;;
67841;SDS011;54642;59.126;37.876;2023-03-11T00:25:33;6.45;;;5.82;;
67841;SDS011;54642;59.126;37.876;2023-03-11T00:28:00;7.20;;;4.70;;
67841;SDS011;54642;59.126;37.876;2023-03-11T00:30:26;4.22;;;3.88;;
67841;SDS011;54642;59.126;37.876;2023-03-11T00:32:53;5.53;;;5.03;;
67841;SDS011;54642;59.126;37.876;2023-03-11T00:35:28;4.63;;;4.22;;
67841;SDS011;54642;59.126;37.876;2023-03-11T00:37:57;5.30;;;4.18;;
67841;SDS011;54642;59.126;37.876;2023-03-11T00:40:26;4.57;;;2.95;;
67841;SDS011;54642;59.126;37.876;2023-03-11T00:42:54;8.52;;;7.88;;
67841;SDS011;54642;59.126;37.876;2023-03-11T00:47:46;5.82;;;4.93;;
67841;SDS011;54642;59.126;37.876;2023-03-11T00:50:14;5.43;;;5.03;;
67841;SDS011;54642;59.126;37.876;2023-03-11T00:52:43;5.68;;;5.18;;
67841;SDS011;54642;59.126;37.876;2023-03-11T00:55:17;6.15;;;5.43;;
67841;SDS011;54642;59.126;37.876;2023-03-11T00:57:56;5.32;;;4.85;;
67841;SDS011;54642;59.126;37.876;2023-03-11T01:00:26;6.45;;;5.75;;
67841;SDS011;54642;59.126;37.876;2023-03-11T01:02:54;6.15;;;5.55;;
67841;SDS011;54642;59.126;37.876;2023-03-11T01:05:22;7.20;;;4.97;;
67841;SDS011;54642;59.126;37.876;2023-03-11T01:07:50;9.85;;;9.20;;
67841;SDS011;54642;59.126;37.876;2023-03-11T01:10:16;8.85;;;8.13;;
67841;SDS011;54642;59.126;37.876;2023-03-11T01:12:43;8.35;;;6.43;;
67841;SDS011;54642;59.126;37.876;2023-03-11T01:15:20;7.45;;;6.15;;
67841;SDS011;54642;59.126;37.876;2023-03-11T01:17:52;5.75;;;3.60;;
67841;SDS011;54642;59.126;37.876;2023-03-11T01:20:18;11.20;;;7.22;;
67841;SDS011;54642;59.126;37.876;2023-03-11T01:22:44;8.60;;;7.28;;
67841;SDS011;54642;59.126;37.876;2023-03-11T01:25:14;6.38;;;5.75;;
67841;SDS011;54642;59.126;37.876;2023-03-11T01:27:41;6.10;;;5.57;;
67841;SDS011;54642;59.126;37.876;2023-03-11T01:30:09;6.78;;;6.15;;
67841;SDS011;54642;59.126;37.876;2023-03-11T01:32:39;6.75;;;6.05;;
67841;SDS011;54642;59.126;37.876;2023-03-11T01:35:05;6.15;;;5.55;;
67841;SDS011;54642;59.126;37.876;2023-03-11T01:39:57;7.40;;;4.20;;
67841;SDS011;54642;59.126;37.876;2023-03-11T01:42:23;4.95;;;4.47;;
67841;SDS011;54642;59.126;37.876;2023-03-11T01:44:49;6.38;;;5.78;;
67841;SDS011;54642;59.126;37.876;2023-03-11T01:47:32;9.38;;;5.50;;
67841;SDS011;54642;59.126;37.876;2023-03-11T01:50:01;6.78;;;5.70;;
67841;SDS011;54642;59.126;37.876;2023-03-11T01:52:29;5.63;;;5.22;;
67841;SDS011;54642;59.126;37.876;2023-03-11T01:54:55;5.78;;;5.25;;
67841;SDS011;54642;59.126;37.876;2023-03-11T01:57:21;7.18;;;6.35;;
67841;SDS011;54642;59.126;37.876;2023-03-11T01:59:50;8.90;;;5.78;;
67841;SDS011;54642;59.126;37.876;2023-03-11T02:02:25;4.93;;;4.50;;
67841;SDS011;54642;59.126;37.876;2023-03-11T02:05:00;7.85;;;7.20;;
67841;SDS011;54642;59.126;37.876;2023-03-11T02:07:27;4.82;;;2.58;;
67841;SDS011;54642;59.126;37.876;2023-03-11T02:09:54;6.25;;;5.47;;
67841;SDS011;54642;59.126;37.876;2023-03-11T02:12:20;5.47;;;2.55;;
67841;SDS011;54642;59.126;37.876;2023-03-11T02:14:48;6.60;;;6.10;;
67841;SDS011;54642;59.126;37.876;2023-03-11T02:17:16;6.03;;;4.07;;
67841;SDS011;54642;59.126;37.876;2023-03-11T02:22:17;6.93;;;6.43;;
67841;SDS011;54642;59.126;37.876;2023-03-11T02:24:45;5.50;;;5.13;;
67841;SDS011;54642;59.126;37.876;2023-03-11T02:27:13;7.57;;;6.68;;
67841;SDS011;54642;59.126;37.876;2023-03-11T02:29:44;5.25;;;2.67;;
67841;SDS011;54642;59.126;37.876;2023-03-11T02:32:14;5.13;;;4.72;;
67841;SDS011;54642;59.126;37.876;2023-03-11T02:34:42;4.53;;;2.65;;
67841;SDS011;54642;59.126;37.876;2023-03-11T02:37:10;6.32;;;5.15;;
67841;SDS011;54642;59.126;37.876;2023-03-11T02:39:43;6.68;;;6.07;;
67841;SDS011;54642;59.126;37.876;2023-03-11T02:42:14;6.82;;;6.18;;
67841;SDS011;54642;59.126;37.876;2023-03-11T02:45:12;8.65;;;6.15;;
67841;SDS011;54642;59.126;37.876;2023-03-11T02:47:41;6.57;;;6.00;;
67841;SDS011;54642;59.126;37.876;2023-03-11T02:50:10;6.78;;;6.28;;
67841;SDS011;54642;59.126;37.876;2023-03-11T02:52:38;9.20;;;8.48;;
67841;SDS011;54642;59.126;37.876;2023-03-11T02:55:04;5.82;;;5.30;;
67841;SDS011;54642;59.126;37.876;2023-03-11T02:57:32;6.25;;;5.57;;
67841;SDS011;54642;59.126;37.876;2023-03-11T03:04:56;6.32;;;5.68;;
67841;SDS011;54642;59.126;37.876;2023-03-11T03:07:22;7.22;;;5.32;;
67841;SDS011;54642;59.126;37.876;2023-03-11T03:09:48;6.60;;;6.00;;
67841;SDS011;54642;59.126;37.876;2023-03-11T03:12:14;6.80;;;5.95;;
67841;SDS011;54642;59.126;37.876;2023-03-11T03:14:40;6.65;;;5.85;;
67841;SDS011;54642;59.126;37.876;2023-03-11T03:17:06;9.07;;;6.82;;
67841;SDS011;54642;59.126;37.876;2023-03-11T03:19:32;7.82;;;6.20;;
67841;SDS011;54642;59.126;37.876;2023-03-11T03:21:58;6.95;;;5.45;;
67841;SDS011;54642;59.126;37.876;2023-03-11T03:26:51;6.15;;;5.55;;
67841;SDS011;54642;59.126;37.876;2023-03-11T03:29:17;6.22;;;5.63;;
67841;SDS011;54642;59.126;37.876;2023-03-11T03:31:44;6.13;;;5.63;;
67841;SDS011;54642;59.126;37.876;2023-03-11T03:34:11;6.68;;;6.07;;
67841;SDS011;54642;59.126;37.876;2023-03-11T03:36:38;9.35;;;3.97;;
67841;SDS011;54642;59.126;37.876;2023-03-11T03:39:04;4.93;;;2.97;;
67841;SDS011;54642;59.126;37.876;2023-03-11T03:41:34;10.23;;;5.75;;
67841;SDS011;54642;59.126;37.876;2023-03-11T03:44:01;6.00;;;5.60;;
67841;SDS011;54642;59.126;37.876;2023-03-11T03:46:29;6.18;;;5.32;;
67841;SDS011;54642;59.126;37.876;2023-03-11T03:48:57;6.25;;;3.70;;
67841;SDS011;54642;59.126;37.876;2023-03-11T03:51:23;8.68;;;6.10;;
67841;SDS011;54642;59.126;37.876;2023-03-11T03:54:10;6.63;;;5.75;;
67841;SDS011;54642;59.126;37.876;2023-03-11T03:56:36;8.00;;;6.63;;
67841;SDS011;54642;59.126;37.876;2023-03-11T03:59:02;7.22;;;6.60;;
67841;SDS011;54642;59.126;37.876;2023-03-11T04:01:35;8.32;;;6.03;;
67841;SDS011;54642;59.126;37.876;2023-03-11T04:04:01;7.78;;;6.40;;
67841;SDS011;54642;59.126;37.876;2023-03-11T04:06:27;6.05;;;5.47;;
67841;SDS011;54642;59.126;37.876;2023-03-11T04:08:57;7.00;;;5.93;;
67841;SDS011;54642;59.126;37.876;2023-03-11T04:11:27;7.05;;;6.22;;
67841;SDS011;54642;59.126;37.876;2023-03-11T04:13:54;7.90;;;5.97;;
67841;SDS011;54642;59.126;37.876;2023-03-11T04:16:21;10.73;;;9.35;;
67841;SDS011;54642;59.126;37.876;2023-03-11T04:18:50;10.48;;;7.97;;
67841;SDS011;54642;59.126;37.876;2023-03-11T04:21:17;25.23;;;16.23;;
67841;SDS011;54642;59.126;37.876;2023-03-11T04:23:44;14.85;;;10.77;;
67841;SDS011;54642;59.126;37.876;2023-03-11T04:26:13;8.23;;;7.40;;
67841;SDS011;54642;59.126;37.876;2023-03-11T04:28:39;10.85;;;8.60;;
67841;SDS011;54642;59.126;37.876;2023-03-11T04:31:05;7.85;;;7.22;;
67841;SDS011;54642;59.126;37.876;2023-03-11T04:33:32;10.10;;;7.00;;
67841;SDS011;54642;59.126;37.876;2023-03-11T04:35:58;8.90;;;7.15;;
67841;SDS011;54642;59.126;37.876;2023-03-11T04:38:24;8.77;;;7.88;;
67841;SDS011;54642;59.126;37.876;2023-03-11T04:40:50;11.55;;;8.05;;
67841;SDS011;54642;59.126;37.876;2023-03-11T04:43:17;8.68;;;7.82;;
67841;SDS011;54642;59.126;37.876;2023-03-11T04:45:44;13.50;;;10.70;;
67841;SDS011;54642;59.126;37.876;2023-03-11T04:48:11;13.18;;;5.75;;
67841;SDS011;54642;59.126;37.876;2023-03-11T04:50:39;19.08;;;9.85;;
67841;SDS011;54642;59.126;37.876;2023-03-11T04:53:04;11.98;;;8.73;;
67841;SDS011;54642;59.126;37.876;2023-03-11T04:55:30;9.95;;;7.68;;
67841;SDS011;54642;59.126;37.876;2023-03-11T04:57:58;8.18;;;6.55;;
67841;SDS011;54642;59.126;37.876;2023-03-11T05:00:24;9.07;;;7.90;;
67841;SDS011;54642;59.126;37.876;2023-03-11T05:02:58;7.65;;;6.70;;
67841;SDS011;54642;59.126;37.876;2023-03-11T05:05:24;7.10;;;6.20;;
67841;SDS011;54642;59.126;37.876;2023-03-11T05:07:50;8.90;;;8.00;;
67841;SDS011;54642;59.126;37.876;2023-03-11T05:10:16;5.93;;;5.32;;
67841;SDS011;54642;59.126;37.876;2023-03-11T05:12:49;7.20;;;5.80;;
67841;SDS011;54642;59.126;37.876;2023-03-11T05:15:16;6.70;;;6.05;;
67841;SDS011;54642;59.126;37.876;2023-03-11T05:17:42;10.13;;;6.82;;
67841;SDS011;54642;59.126;37.876;2023-03-11T05:20:09;7.70;;;6.30;;
67841;SDS011;54642;59.126;37.876;2023-03-11T05:22:35;8.27;;;7.45;;
67841;SDS011;54642;59.126;37.876;2023-03-11T05:25:02;8.98;;;8.18;;
67841;SDS011;54642;59.126;37.876;2023-03-11T05:27:29;11.10;;;10.00;;
67841;SDS011;54642;59.126;37.876;2023-03-11T05:29:55;8.15;;;7.43;;
67841;SDS011;54642;59.126;37.876;2023-03-11T05:32:23;9.57;;;3.85;;
67841;SDS011;54642;59.126;37.876;2023-03-11T05:34:50;9.77;;;8.02;;
67841;SDS011;54642;59.126;37.876;2023-03-11T05:37:17;9.57;;;7.75;;
67841;SDS011;54642;59.126;37.876;2023-03-11T05:39:45;8.98;;;7.07;;
67841;SDS011;54642;59.126;37.876;2023-03-11T05:42:12;7.55;;;6.60;;
67841;SDS011;54642;59.126;37.876;2023-03-11T05:47:06;8.63;;;7.35;;
67841;SDS011;54642;59.126;37.876;2023-03-11T05:51:58;7.43;;;5.70;;
67841;SDS011;54642;59.126;37.876;2023-03-11T05:54:26;8.48;;;6.22;;
67841;SDS011;54642;59.126;37.876;2023-03-11T05:56:53;7.70;;;6.45;;
67841;SDS011;54642;59.126;37.876;2023-03-11T05:59:21;8.88;;;8.07;;
67841;SDS011;54642;59.126;37.876;2023-03-11T06:01:53;7.63;;;6.85;;
67841;SDS011;54642;59.126;37.876;2023-03-11T06:04:21;8.45;;;6.20;;
67841;SDS011;54642;59.126;37.876;2023-03-11T06:06:47;11.30;;;6.78;;
67841;SDS011;54642;59.126;37.876;2023-03-11T06:09:15;8.48;;;6.45;;
67841;SDS011;54642;59.126;37.876;2023-03-11T06:11:43;7.32;;;6.50;;
67841;SDS011;54642;59.126;37.876;2023-03-11T06:14:10;7.57;;;6.88;;
67841;SDS011;54642;59.126;37.876;2023-03-11T06:16:38;8.27;;;6.90;;
67841;SDS011;54642;59.126;37.876;2023-03-11T06:19:06;8.10;;;7.35;;
67841;SDS011;54642;59.126;37.876;2023-03-11T06:21:36;8.93;;;6.60;;
67841;SDS011;54642;59.126;37.876;2023-03-11T06:24:02;10.90;;;6.85;;
67841;SDS011;54642;59.126;37.876;2023-03-11T06:26:30;10.82;;;7.75;;
67841;SDS011;54642;59.126;37.876;2023-03-11T06:28:56;7.03;;;5.65;;
67841;SDS011;54642;59.126;37.876;2023-03-11T06:31:23;12.27;;;8.30;;
67841;SDS011;54642;59.126;37.876;2023-03-11T06:33:55;9.55;;;7.35;;
67841;SDS011;54642;59.126;37.876;2023-03-11T06:38:50;6.93;;;6.22;;
67841;SDS011;54642;59.126;37.876;2023-03-11T06:41:18;9.10;;;5.45;;
67841;SDS011;54642;59.126;37.876;2023-03-11T06:43:45;7.97;;;7.22;;
67841;SDS011;54642;59.126;37.876;2023-03-11T06:46:13;6.90;;;6.25;;
67841;SDS011;54642;59.126;37.876;2023-03-11T06:48:43;8.93;;;7.32;;
67841;SDS011;54642;59.126;37.876;2023-03-11T06:51:11;5.18;;;4.70;;
67841;SDS011;54642;59.126;37.876;2023-03-11T06:53:38;10.80;;;7.63;;
67841;SDS011;54642;59.126;37.876;2023-03-11T06:58:37;7.90;;;6.78;;
67841;SDS011;54642;59.126;37.876;2023-03-11T07:01:09;10.13;;;7.03;;
67841;SDS011;54642;59.126;37.876;2023-03-11T07:03:37;8.25;;;6.70;;
67841;SDS011;54642;59.126;37.876;2023-03-11T07:06:04;7.47;;;6.78;;
67841;SDS011;54642;59.126;37.876;2023-03-11T07:08:30;8.57;;;6.30;;
67841;SDS011;54642;59.126;37.876;2023-03-11T07:11:00;7.50;;;5.30;;
67841;SDS011;54642;59.126;37.876;2023-03-11T07:13:30;8.75;;;5.45;;
67841;SDS011;54642;59.126;37.876;2023-03-11T07:18:29;7.18;;;6.47;;
67841;SDS011;54642;59.126;37.876;2023-03-11T07:20:55;10.27;;;6.70;;
67841;SDS011;54642;59.126;37.876;2023-03-11T07:23:21;6.95;;;6.35;;
67841;SDS011;54642;59.126;37.876;2023-03-11T07:25:47;8.77;;;6.97;;
67841;SDS011;54642;59.126;37.876;2023-03-11T07:30:39;8.20;;;6.05;;
67841;SDS011;54642;59.126;37.876;2023-03-11T07:33:05;6.72;;;5.93;;
67841;SDS011;54642;59.126;37.876;2023-03-11T07:35:33;10.60;;;6.40;;
67841;SDS011;54642;59.126;37.876;2023-03-11T07:38:00;7.63;;;6.65;;
67841;SDS011;54642;59.126;37.876;2023-03-11T07:40:26;7.55;;;6.13;;
67841;SDS011;54642;59.126;37.876;2023-03-11T07:42:52;10.05;;;7.18;;
67841;SDS011;54642;59.126;37.876;2023-03-11T07:45:19;7.95;;;6.07;;
67841;SDS011;54642;59.126;37.876;2023-03-11T07:47:45;10.43;;;6.30;;
67841;SDS011;54642;59.126;37.876;2023-03-11T07:50:11;8.75;;;6.18;;
67841;SDS011;54642;59.126;37.876;2023-03-11T07:52:37;8.40;;;5.72;;
67841;SDS011;54642;59.126;37.876;2023-03-11T07:55:03;7.82;;;5.60;;
67841;SDS011;54642;59.126;37.876;2023-03-11T07:57:29;7.10;;;6.40;;
67841;SDS011;54642;59.126;37.876;2023-03-11T07:59:55;6.07;;;5.28;;
67841;SDS011;54642;59.126;37.876;2023-03-11T08:02:21;7.53;;;5.93;;
67841;SDS011;54642;59.126;37.876;2023-03-11T08:04:47;7.78;;;6.70;;
67841;SDS011;54642;59.126;37.876;2023-03-11T08:07:12;8.50;;;6.50;;
67841;SDS011;54642;59.126;37.876;2023-03-11T08:09:38;11.98;;;5.85;;
67841;SDS011;54642;59.126;37.876;2023-03-11T08:12:04;8.00;;;5.13;;
67841;SDS011;54642;59.126;37.876;2023-03-11T08:14:30;8.65;;;7.82;;
67841;SDS011;54642;59.126;37.876;2023-03-11T08:16:56;8.35;;;7.60;;
67841;SDS011;54642;59.126;37.876;2023-03-11T08:19:22;8.38;;;6.32;;
67841;SDS011;54642;59.126;37.876;2023-03-11T08:21:48;7.05;;;5.38;;
67841;SDS011;54642;59.126;37.876;2023-03-11T08:24:14;6.80;;;4.18;;
67841;SDS011;54642;59.126;37.876;2023-03-11T08:26:40;6.10;;;4.57;;
67841;SDS011;54642;59.126;37.876;2023-03-11T08:29:06;4.97;;;4.03;;
67841;SDS011;54642;59.126;37.876;2023-03-11T08:31:33;6.47;;;3.38;;
67841;SDS011;54642;59.126;37.876;2023-03-11T08:34:01;5.50;;;4.80;;
67841;SDS011;54642;59.126;37.876;2023-03-11T08:36:28;6.30;;;5.40;;
67841;SDS011;54642;59.126;37.876;2023-03-11T08:38:59;6.10;;;4.72;;
67841;SDS011;54642;59.126;37.876;2023-03-11T08:43:51;4.57;;;4.18;;
67841;SDS011;54642;59.126;37.876;2023-03-11T08:48:49;5.00;;;4.10;;
67841;SDS011;54642;59.126;37.876;2023-03-11T08:53:41;5.05;;;4.55;;
67841;SDS011;54642;59.126;37.876;2023-03-11T08:56:07;5.72;;;4.45;;
67841;SDS011;54642;59.126;37.876;2023-03-11T08:58:33;5.00;;;4.50;;
67841;SDS011;54642;59.126;37.876;2023-03-11T09:00:59;4.82;;;4.28;;
67841;SDS011;54642;59.126;37.876;2023-03-11T09:03:25;5.13;;;4.22;;
67841;SDS011;54642;59.126;37.876;2023-03-11T09:08:21;3.58;;;3.30;;
67841;SDS011;54642;59.126;37.876;2023-03-11T09:10:47;4.20;;;3.80;;
67841;SDS011;54642;59.126;37.876;2023-03-11T09:15:39;4.07;;;3.67;;
67841;SDS011;54642;59.126;37.876;2023-03-11T09:18:05;5.40;;;4.90;;
67841;SDS011;54642;59.126;37.876;2023-03-11T09:20:36;4.05;;;3.40;;
67841;SDS011;54642;59.126;37.876;2023-03-11T09:23:03;4.38;;;3.95;;
67841;SDS011;54642;59.126;37.876;2023-03-11T09:25:29;4.95;;;4.55;;
67841;SDS011;54642;59.126;37.876;2023-03-11T09:27:55;5.03;;;3.60;;
67841;SDS011;54642;59.126;37.876;2023-03-11T09:30:21;3.90;;;2.15;;
67841;SDS011;54642;59.126;37.876;2023-03-11T09:32:46;4.88;;;4.45;;
67841;SDS011;54642;59.126;37.876;2023-03-11T09:35:12;4.40;;;4.00;;
67841;SDS011;54642;59.126;37.876;2023-03-11T09:37:38;3.58;;;2.20;;
67841;SDS011;54642;59.126;37.876;2023-03-11T09:42:40;4.40;;;3.97;;
67841;SDS011;54642;59.126;37.876;2023-03-11T09:45:15;5.80;;;5.30;;
67841;SDS011;54642;59.126;37.876;2023-03-11T09:53:52;6.80;;;5.00;;
67841;SDS011;54642;59.126;37.876;2023-03-11T09:56:28;4.32;;;3.80;;
67841;SDS011;54642;59.126;37.876;2023-03-11T09:59:00;6.78;;;4.03;;
67841;SDS011;54642;59.126;37.876;2023-03-11T10:01:44;4.65;;;4.03;;
67841;SDS011;54642;59.126;37.876;2023-03-11T10:04:22;4.93;;;4.53;;
67841;SDS011;54642;59.126;37.876;2023-03-11T10:06:58;5.93;;;4.72;;
67841;SDS011;54642;59.126;37.876;2023-03-11T10:09:35;4.70;;;3.65;;
67841;SDS011;54642;59.126;37.876;2023-03-11T10:20:12;5.43;;;3.72;;
67841;SDS011;54642;59.126;37.876;2023-03-11T10:22:51;3.58;;;3.28;;
67841;SDS011;54642;59.126;37.876;2023-03-11T10:25:27;5.50;;;4.70;;
67841;SDS011;54642;59.126;37.876;2023-03-11T10:28:21;5.05;;;4.65;;
67841;SDS011;54642;59.126;37.876;2023-03-11T10:30:54;4.03;;;3.63;;
67841;SDS011;54642;59.126;37.876;2023-03-11T10:35:57;4.10;;;3.65;;
67841;SDS011;54642;59.126;37.876;2023-03-11T10:39:01;9.07;;;4.82;;
67841;SDS011;54642;59.126;37.876;2023-03-11T10:41:41;3.78;;;3.28;;
67841;SDS011;54642;59.126;37.876;2023-03-11T10:44:14;3.40;;;3.10;;
67841;SDS011;54642;59.126;37.876;2023-03-11T10:46:45;3.45;;;3.15;;
67841;SDS011;54642;59.126;37.876;2023-03-11T10:51:43;4.20;;;3.80;;
67841;SDS011;54642;59.126;37.876;2023-03-11T10:54:25;3.70;;;3.03;;
67841;SDS011;54642;59.126;37.876;2023-03-11T10:56:54;5.40;;;4.25;;
67841;SDS011;54642;59.126;37.876;2023-03-11T11:00:02;3.28;;;2.80;;
67841;SDS011;54642;59.126;37.876;2023-03-11T11:02:28;3.45;;;3.03;;
67841;SDS011;54642;59.126;37.876;2023-03-11T11:07:40;3.65;;;2.88;;
67841;SDS011;54642;59.126;37.876;2023-03-11T11:12:52;3.60;;;3.30;;
67841;SDS011;54642;59.126;37.876;2023-03-11T11:17:53;5.82;;;3.45;;
67841;SDS011;54642;59.126;37.876;2023-03-11T11:20:22;3.45;;;3.15;;
67841;SDS011;54642;59.126;37.876;2023-03-11T11:22:54;3.17;;;2.85;;
67841;SDS011;54642;59.126;37.876;2023-03-11T11:27:54;2.95;;;1.42;;
67841;SDS011;54642;59.126;37.876;2023-03-11T11:30:22;5.70;;;3.50;;
67841;SDS011;54642;59.126;37.876;2023-03-11T11:32:49;4.28;;;3.03;;
67841;SDS011;54642;59.126;37.876;2023-03-11T11:35:19;3.45;;;2.53;;
67841;SDS011;54642;59.126;37.876;2023-03-11T11:37:58;3.20;;;2.90;;
67841;SDS011;54642;59.126;37.876;2023-03-11T11:40:28;3.38;;;3.10;;
67841;SDS011;54642;59.126;37.876;2023-03-11T11:43:05;4.68;;;3.30;;
67841;SDS011;54642;59.126;37.876;2023-03-11T11:45:43;4.70;;;3.40;;
67841;SDS011;54642;59.126;37.876;2023-03-11T11:48:24;3.38;;;3.08;;
67841;SDS011;54642;59.126;37.876;2023-03-11T11:51:22;3.30;;;2.85;;
67841;SDS011;54642;59.126;37.876;2023-03-11T11:53:58;3.70;;;3.00;;
67841;SDS011;54642;59.126;37.876;2023-03-11T11:56:31;3.72;;;3.33;;
67841;SDS011;54642;59.126;37.876;2023-03-11T12:07:31;4.28;;;3.20;;
67841;SDS011;54642;59.126;37.876;2023-03-11T12:13:00;4.75;;;4.35;;
67841;SDS011;54642;59.126;37.876;2023-03-11T12:24:08;5.03;;;4.13;;
67841;SDS011;54642;59.126;37.876;2023-03-11T12:26:45;5.90;;;4.25;;
67841;SDS011;54642;59.126;37.876;2023-03-11T12:31:52;9.50;;;2.40;;
67841;SDS011;54642;59.126;37.876;2023-03-11T12:34:20;4.93;;;2.22;;
67841;SDS011;54642;59.126;37.876;2023-03-11T12:36:47;5.40;;;4.07;;
67841;SDS011;54642;59.126;37.876;2023-03-11T12:39:19;4.10;;;3.47;;
67841;SDS011;54642;59.126;37.876;2023-03-11T12:44:35;5.65;;;3.88;;
67841;SDS011;54642;59.126;37.876;2023-03-11T12:49:40;4.47;;;3.42;;
67841;SDS011;54642;59.126;37.876;2023-03-11T12:54:38;3.92;;;2.08;;
67841;SDS011;54642;59.126;37.876;2023-03-11T13:08:25;8.48;;;3.30;;
67841;SDS011;54642;59.126;37.876;2023-03-11T13:10:57;4.97;;;4.30;;
67841;SDS011;54642;59.126;37.876;2023-03-11T13:15:52;5.55;;;4.63;;
67841;SDS011;54642;59.126;37.876;2023-03-11T13:18:22;6.00;;;3.65;;
67841;SDS011;54642;59.126;37.876;2023-03-11T13:20:50;7.13;;;3.58;;
67841;SDS011;54642;59.126;37.876;2023-03-11T13:23:34;4.55;;;4.15;;
67841;SDS011;54642;59.126;37.876;2023-03-11T13:29:22;4.57;;;4.07;;
67841;SDS011;54642;59.126;37.876;2023-03-11T13:40:39;4.03;;;3.53;;
67841;SDS011;54642;59.126;37.876;2023-03-11T13:43:16;4.63;;;3.78;;
67841;SDS011;54642;59.126;37.876;2023-03-11T13:51:05;6.30;;;3.03;;
67841;SDS011;54642;59.126;37.876;2023-03-11T13:53:42;3.67;;;3.20;;
67841;SDS011;54642;59.126;37.876;2023-03-11T13:56:21;3.40;;;2.70;;
67841;SDS011;54642;59.126;37.876;2023-03-11T13:58:52;2.13;;;1.17;;
67841;SDS011;54642;59.126;37.876;2023-03-11T14:01:19;3.55;;;3.25;;
67841;SDS011;54642;59.126;37.876;2023-03-11T14:03:45;3.85;;;3.20;;
67841;SDS011;54642;59.126;37.876;2023-03-11T14:06:17;3.28;;;2.42;;
67841;SDS011;54642;59.126;37.876;2023-03-11T14:08:51;2.83;;;2.42;;
67841;SDS011;54642;59.126;37.876;2023-03-11T14:11:27;3.33;;;3.03;;
67841;SDS011;54642;59.126;37.876;2023-03-11T14:18:46;2.75;;;2.55;;
67841;SDS011;54642;59.126;37.876;2023-03-11T14:21:33;2.72;;;2.53;;
67841;SDS011;54642;59.126;37.876;2023-03-11T14:23:59;3.03;;;2.72;;
67841;SDS011;54642;59.126;37.876;2023-03-11T14:26:31;3.85;;;3.40;;
67841;SDS011;54642;59.126;37.876;2023-03-11T14:34:03;6.38;;;3.40;;
67841;SDS011;54642;59.126;37.876;2023-03-11T14:44:43;2.95;;;2.75;;
67841;SDS011;54642;59.126;37.876;2023-03-11T14:47:30;2.85;;;1.63;;
67841;SDS011;54642;59.126;37.876;2023-03-11T14:50:08;3.42;;;3.13;;
67841;SDS011;54642;59.126;37.876;2023-03-11T14:52:42;3.40;;;3.10;;
67841;SDS011;54642;59.126;37.876;2023-03-11T14:55:14;3.20;;;2.95;;
67841;SDS011;54642;59.126;37.876;2023-03-11T14:57:54;3.95;;;2.53;;
67841;SDS011;54642;59.126;37.876;2023-03-11T15:00:29;4.35;;;3.92;;
67841;SDS011;54642;59.126;37.876;2023-03-11T15:05:41;3.63;;;3.03;;
67841;SDS011;54642;59.126;37.876;2023-03-11T15:08:16;4.22;;;3.92;;
67841;SDS011;54642;59.126;37.876;2023-03-11T15:13:28;6.25;;;5.80;;
67841;SDS011;54642;59.126;37.876;2023-03-11T15:15:58;4.25;;;3.70;;
67841;SDS011;54642;59.126;37.876;2023-03-11T15:18:31;3.58;;;3.20;;
67841;SDS011;54642;59.126;37.876;2023-03-11T15:21:05;3.70;;;3.38;;
67841;SDS011;54642;59.126;37.876;2023-03-11T15:23:39;3.13;;;2.75;;
67841;SDS011;54642;59.126;37.876;2023-03-11T15:26:38;3.95;;;3.63;;
67841;SDS011;54642;59.126;37.876;2023-03-11T15:29:12;5.07;;;3.97;;
67841;SDS011;54642;59.126;37.876;2023-03-11T15:31:41;3.30;;;1.90;;
67841;SDS011;54642;59.126;37.876;2023-03-11T15:37:04;3.17;;;2.08;;
67841;SDS011;54642;59.126;37.876;2023-03-11T15:39:45;3.88;;;3.58;;
67841;SDS011;54642;59.126;37.876;2023-03-11T15:42:19;5.10;;;4.80;;
67841;SDS011;54642;59.126;37.876;2023-03-11T15:45:09;3.95;;;3.55;;
67841;SDS011;54642;59.126;37.876;2023-03-11T15:47:39;5.10;;;4.60;;
67841;SDS011;54642;59.126;37.876;2023-03-11T15:52:49;3.78;;;1.35;;
67841;SDS011;54642;59.126;37.876;2023-03-11T15:55:18;4.00;;;3.03;;
67841;SDS011;54642;59.126;37.876;2023-03-11T15:57:45;3.08;;;2.75;;
67841;SDS011;54642;59.126;37.876;2023-03-11T16:00:17;6.40;;;5.88;;
67841;SDS011;54642;59.126;37.876;2023-03-11T16:02:46;2.88;;;2.67;;
67841;SDS011;54642;59.126;37.876;2023-03-11T16:05:14;3.47;;;2.83;;
67841;SDS011;54642;59.126;37.876;2023-03-11T16:07:42;8.93;;;5.18;;
67841;SDS011;54642;59.126;37.876;2023-03-11T16:10:09;3.22;;;2.38;;
67841;SDS011;54642;59.126;37.876;2023-03-11T16:12:36;6.45;;;4.32;;
67841;SDS011;54642;59.126;37.876;2023-03-11T16:17:28;5.55;;;5.07;;
67841;SDS011;54642;59.126;37.876;2023-03-11T16:19:54;3.97;;;1.58;;
67841;SDS011;54642;59.126;37.876;2023-03-11T16:22:21;3.97;;;3.20;;
67841;SDS011;54642;59.126;37.876;2023-03-11T16:24:56;3.55;;;2.83;;
67841;SDS011;54642;59.126;37.876;2023-03-11T16:27:23;4.05;;;3.65;;
67841;SDS011;54642;59.126;37.876;2023-03-11T16:29:49;3.15;;;2.90;;
67841;SDS011;54642;59.126;37.876;2023-03-11T16:32:15;3.97;;;3.67;;
67841;SDS011;54642;59.126;37.876;2023-03-11T16:34:41;3.28;;;2.55;;
67841;SDS011;54642;59.126;37.876;2023-03-11T16:37:07;4.18;;;3.63;;
67841;SDS011;54642;59.126;37.876;2023-03-11T16:39:38;3.28;;;3.08;;
67841;SDS011;54642;59.126;37.876;2023-03-11T16:42:04;4.03;;;3.35;;
67841;SDS011;54642;59.126;37.876;2023-03-11T16:44:30;3.72;;;3.42;;
67841;SDS011;54642;59.126;37.876;2023-03-11T16:46:56;2.78;;;2.55;;
67841;SDS011;54642;59.126;37.876;2023-03-11T16:49:21;2.75;;;2.55;;
67841;SDS011;54642;59.126;37.876;2023-03-11T16:51:47;4.20;;;2.97;;
67841;SDS011;54642;59.126;37.876;2023-03-11T16:54:13;2.53;;;2.33;;
67841;SDS011;54642;59.126;37.876;2023-03-11T16:56:39;4.32;;;3.92;;
67841;SDS011;54642;59.126;37.876;2023-03-11T16:59:06;3.65;;;3.10;;
67841;SDS011;54642;59.126;37.876;2023-03-11T17:01:32;3.65;;;3.30;;
67841;SDS011;54642;59.126;37.876;2023-03-11T17:04:06;4.40;;;3.50;;
67841;SDS011;54642;59.126;37.876;2023-03-11T17:06:32;4.15;;;3.85;;
67841;SDS011;54642;59.126;37.876;2023-03-11T17:08:59;2.90;;;2.65;;
67841;SDS011;54642;59.126;37.876;2023-03-11T17:11:25;3.53;;;3.22;;
67841;SDS011;54642;59.126;37.876;2023-03-11T17:13:54;4.47;;;3.75;;
67841;SDS011;54642;59.126;37.876;2023-03-11T17:16:20;3.95;;;3.22;;
67841;SDS011;54642;59.126;37.876;2023-03-11T17:18:46;4.30;;;4.00;;
67841;SDS011;54642;59.126;37.876;2023-03-11T17:21:13;4.63;;;4.22;;
67841;SDS011;54642;59.126;37.876;2023-03-11T17:23:40;6.75;;;6.18;;
67841;SDS011;54642;59.126;37.876;2023-03-11T17:26:08;3.80;;;3.47;;
67841;SDS011;54642;59.126;37.876;2023-03-11T17:28:35;3.97;;;3.67;;
67841;SDS011;54642;59.126;37.876;2023-03-11T17:31:02;3.10;;;2.90;;
67841;SDS011;54642;59.126;37.876;2023-03-11T17:33:30;3.63;;;3.33;;
67841;SDS011;54642;59.126;37.876;2023-03-11T17:36:00;3.83;;;3.38;;